CheckWX is a tool to help pilots better visualize weather data.  It is not intended as a substitute for an official pre-flight weather briefing.

17:21:40 UTC

KBIV METAR
West Michigan Regional Airport
Holland, Michigan, USA
Current

29 mins ago

KBIV 201653Z AUTO 36005KT 9SM OVC033 M06/M12 A3065 RMK AO2 SLP393 T10561117
Observed
Feb-20 @ 16:53 UTC
Wind
  • 360° at 5 KTS
Visibility
9 SM
Flight Rules
VFR
Cloud Levels
  • Overcast at 3,300' AGL
Temperature
-6°C / 21°F
Dewpoint
-12°C / 10°F
Humidity
63%
Altimeter
30.65" Hg
Pressure
1037.92 hPa
Previous

1 hour ago

KBIV 201553Z AUTO 04004KT 10SM FEW031 OVC038 M06/M12 A3066 RMK AO2 SNE18 SLP394 P0000 T10561117
Observed
Feb-20 @ 15:53 UTC
Wind
  • 040° at 4 KTS
Visibility
10 SM
Flight Rules
VFR
Cloud Levels
  • Few at 3,100' AGL
  • Overcast at 3,800' AGL
Temperature
-6°C / 21°F
Dewpoint
-12°C / 10°F
Humidity
63%
Altimeter
30.66" Hg
Pressure
1038.32 hPa
Current Rain
0.01"
Previous

2 hours ago

KBIV 201523Z AUTO 01007KT 9SM SCT029 OVC042 M06/M12 A3066 RMK AO2 SNE18 P0000 T10611117
Observed
Feb-20 @ 15:23 UTC
Wind
  • 010° at 7 KTS
Visibility
9 SM
Flight Rules
VFR
Cloud Levels
  • Scattered at 2,900' AGL
  • Overcast at 4,200' AGL
Temperature
-6°C / 21°F
Dewpoint
-12°C / 10°F
Humidity
63%
Altimeter
30.66" Hg
Pressure
1038.32 hPa
Current Rain
0.01"